Wetterdaten: Woche 22.03.10 - 28.03.10 (KW12)
Datum Zeit Temp. A. Feuchte A. Luftdruck Regen Wind Richtung Taupunkt Windchill Windben
22.03.2010 00:00 12,6 C 80 % 1018,9 hPa 0,0 l/m 2,6 km/h W 9,2 C 12,6 C 9,3 km/h
22.03.2010 01:00 13,2 C 74 % 1019,1 hPa 0,0 l/m 6,7 km/h W-SW 8,7 C 13,0 C 18,1 km/h
22.03.2010 02:00 13,0 C 73 % 1019,4 hPa 0,0 l/m 6,3 km/h W-SW 8,2 C 12,9 C 21,3 km/h
22.03.2010 03:00 12,5 C 75 % 1019,4 hPa 0,0 l/m 7,4 km/h W 8,1 C 11,7 C 21,3 km/h
22.03.2010 04:00 12,3 C 75 % 1019,7 hPa 0,3 l/m 7,7 km/h W-NW 8,0 C 11,4 C 20,5 km/h
22.03.2010 05:00 12,0 C 76 % 1020,0 hPa 0,0 l/m 7,1 km/h W-NW 7,9 C 11,6 C 20,9 km/h
22.03.2010 06:00 11,6 C 77 % 1020,9 hPa 0,0 l/m 5,0 km/h NW 7,7 C 11,6 C 16,1 km/h
22.03.2010 07:00 11,9 C 76 % 1021,5 hPa 0,0 l/m 4,6 km/h NW 7,8 C 11,9 C 12,5 km/h
22.03.2010 08:00 12,5 C 74 % 1022,1 hPa 0,0 l/m 6,4 km/h W-NW 7,9 C 12,3 C 17,7 km/h
22.03.2010 09:00 12,6 C 71 % 1022,5 hPa 0,0 l/m 4,6 km/h W 7,5 C 12,6 C 14,1 km/h
22.03.2010 10:00 12,9 C 70 % 1022,7 hPa 0,0 l/m 5,0 km/h N-NW 7,6 C 12,9 C 12,5 km/h
22.03.2010 11:00 13,7 C 69 % 1023,0 hPa 0,0 l/m 6,6 km/h N-NW 8,0 C 13,5 C 15,7 km/h
22.03.2010 12:00 13,1 C 70 % 1022,9 hPa 0,0 l/m 5,6 km/h NW 7,7 C 13,0 C 14,1 km/h
22.03.2010 13:00 13,7 C 68 % 1022,2 hPa 0,0 l/m 4,7 km/h NO 7,9 C 13,7 C 10,1 km/h
22.03.2010 14:00 14,1 C 66 % 1021,8 hPa 0,0 l/m 3,8 km/h NO 7,8 C 14,1 C 8,4 km/h
22.03.2010 15:00 14,1 C 66 % 1021,5 hPa 0,0 l/m 3,8 km/h NO 7,8 C 14,1 C 10,5 km/h
22.03.2010 16:00 13,8 C 66 % 1021,4 hPa 0,0 l/m 4,4 km/h N-NO 7,5 C 13,8 C 10,9 km/h
22.03.2010 17:00 13,3 C 66 % 1021,3 hPa 0,0 l/m 1,8 km/h N-NW 7,0 C 13,3 C 5,2 km/h
22.03.2010 18:00 10,7 C 75 % 1021,6 hPa 0,0 l/m 0,1 km/h N 6,3 C 10,7 C 1,6 km/h
22.03.2010 19:00 9,6 C 78 % 1021,7 hPa 0,0 l/m 1,3 km/h SW 6,0 C 9,6 C 6,0 km/h
22.03.2010 20:00 8,8 C 80 % 1022,0 hPa 0,0 l/m 0,8 km/h N 5,6 C 8,8 C 4,4 km/h
22.03.2010 21:00 8,1 C 82 % 1022,0 hPa 0,0 l/m 0,5 km/h N 5,3 C 8,1 C 4,0 km/h
22.03.2010 22:00 6,8 C 86 % 1021,9 hPa 0,0 l/m 0,0 km/h N 4,5 C 6,8 C 1,2 km/h
22.03.2010 23:00 5,4 C 88 % 1021,8 hPa 0,0 l/m 0,0 km/h N 3,5 C 5,4 C 1,2 km/h
23.03.2010 00:00 4,9 C 89 % 1021,4 hPa 0,0 l/m 0,0 km/h N 3,2 C 4,9 C 0,8 km/h
23.03.2010 01:00 3,4 C 90 % 1021,2 hPa 0,0 l/m 0,0 km/h N 1,9 C 3,4 C 0,0 km/h
23.03.2010 02:00 3,1 C 91 % 1020,8 hPa 0,0 l/m 0,0 km/h N 1,8 C 3,1 C 0,8 km/h
23.03.2010 03:00 2,7 C 91 % 1020,5 hPa 0,0 l/m 0,0 km/h N 1,4 C 2,7 C 0,0 km/h
23.03.2010 04:00 2,3 C 92 % 1020,3 hPa 0,0 l/m 0,0 km/h N 1,1 C 2,3 C 0,0 km/h
23.03.2010 05:00 1,7 C 92 % 1020,5 hPa 0,0 l/m 0,0 km/h N 0,5 C 1,7 C 0,0 km/h
23.03.2010 06:00 1,8 C 93 % 1021,0 hPa 0,0 l/m 0,0 km/h N 0,7 C 1,8 C 0,0 km/h
23.03.2010 07:00 4,7 C 93 % 1021,3 hPa 0,0 l/m 0,2 km/h N 3,7 C 4,7 C 1,6 km/h
23.03.2010 08:00 7,0 C 87 % 1021,4 hPa 0,0 l/m 0,4 km/h N 5,0 C 7,0 C 3,2 km/h
23.03.2010 09:00 8,4 C 81 % 1021,7 hPa 0,0 l/m 0,9 km/h O-NO 5,3 C 8,4 C 4,0 km/h
23.03.2010 10:00 10,4 C 75 % 1021,7 hPa 0,0 l/m 1,0 km/h NO 6,2 C 10,4 C 4,4 km/h
23.03.2010 11:00 12,1 C 70 % 1021,3 hPa 0,0 l/m 0,9 km/h O-SO 6,7 C 12,1 C 4,4 km/h
23.03.2010 12:00 14,6 C 61 % 1020,6 hPa 0,0 l/m 1,3 km/h NW 7,1 C 14,6 C 7,6 km/h
23.03.2010 13:00 16,1 C 54 % 1019,5 hPa 0,0 l/m 3,1 km/h W-NW 6,7 C 16,1 C 12,9 km/h
23.03.2010 14:00 16,6 C 51 % 1018,8 hPa 0,0 l/m 1,5 km/h S-SW 6,5 C 16,6 C 6,0 km/h
23.03.2010 15:00 17,0 C 51 % 1018,7 hPa 0,0 l/m 1,6 km/h O-SO 6,6 C 17,0 C 8,9 km/h
23.03.2010 16:00 16,4 C 53 % 1018,5 hPa 0,0 l/m 1,6 km/h O 6,7 C 16,4 C 7,2 km/h
23.03.2010 17:00 15,4 C 55 % 1018,5 hPa 0,0 l/m 0,0 km/h N 6,4 C 15,4 C 5,6 km/h
23.03.2010 18:00 12,4 C 65 % 1018,9 hPa 0,0 l/m 0,0 km/h N 5,8 C 12,4 C 0,8 km/h
23.03.2010 19:00 9,0 C 77 % 1019,2 hPa 0,0 l/m 0,0 km/h N 5,1 C 9,0 C 0,8 km/h
23.03.2010 20:00 9,0 C 74 % 1019,3 hPa 0,0 l/m 0,0 km/h N 4,6 C 9,0 C 3,2 km/h
23.03.2010 21:00 8,4 C 75 % 1019,5 hPa 0,0 l/m 0,0 km/h N 4,2 C 8,4 C 4,8 km/h
23.03.2010 22:00 6,3 C 81 % 1019,5 hPa 0,0 l/m 0,0 km/h N 3,2 C 6,3 C 4,0 km/h
23.03.2010 23:00 5,7 C 84 % 1019,5 hPa 0,0 l/m 0,0 km/h N 3,1 C 5,7 C 1,6 km/h
24.03.2010 00:00 6,1 C 82 % 1019,5 hPa 0,0 l/m 0,0 km/h N 3,2 C 6,1 C 3,2 km/h
24.03.2010 01:00 4,1 C 88 % 1019,5 hPa 0,0 l/m 0,0 km/h N 2,2 C 4,1 C 0,8 km/h
24.03.2010 02:00 4,3 C 90 % 1019,3 hPa 0,0 l/m 0,0 km/h N 2,7 C 4,3 C 4,8 km/h
24.03.2010 03:00 3,9 C 88 % 1019,0 hPa 0,0 l/m 0,0 km/h N 2,0 C 3,9 C 2,4 km/h
24.03.2010 04:00 2,5 C 90 % 1019,3 hPa 0,0 l/m 0,0 km/h N 1,0 C 2,5 C 3,2 km/h
24.03.2010 05:00 2,5 C 91 % 1019,7 hPa 0,0 l/m 0,0 km/h N 1,1 C 2,5 C 0,8 km/h
24.03.2010 06:00 2,3 C 91 % 1019,9 hPa 0,0 l/m 0,0 km/h N 1,0 C 2,3 C 1,6 km/h
24.03.2010 07:00 4,3 C 92 % 1020,2 hPa 0,0 l/m 0,0 km/h N 3,0 C 4,3 C 0,0 km/h
24.03.2010 08:00 7,6 C 84 % 1020,4 hPa 0,0 l/m 0,0 km/h SO 5,0 C 7,6 C 4,0 km/h
24.03.2010 09:00 10,5 C 76 % 1020,3 hPa 0,0 l/m 1,6 km/h O-SO 6,4 C 10,5 C 5,6 km/h
24.03.2010 10:00 12,7 C 74 % 1020,1 hPa 0,0 l/m 1,6 km/h O 8,1 C 12,7 C 6,4 km/h
24.03.2010 11:00 15,6 C 61 % 1019,2 hPa 0,0 l/m 4,0 km/h O 8,0 C 15,6 C 14,5 km/h
24.03.2010 12:00 16,5 C 53 % 1018,8 hPa 0,0 l/m 4,8 km/h O-SO 6,7 C 16,5 C 16,9 km/h
24.03.2010 13:00 17,3 C 53 % 1018,3 hPa 0,0 l/m 4,8 km/h O-SO 7,6 C 17,3 C 18,5 km/h
24.03.2010 14:00 17,7 C 50 % 1017,6 hPa 0,0 l/m 5,6 km/h O-SO 7,1 C 17,7 C 20,9 km/h
24.03.2010 15:00 17,9 C 48 % 1017,1 hPa 0,0 l/m 6,4 km/h O 6,7 C 17,9 C 17,7 km/h
24.03.2010 16:00 17,9 C 44 % 1016,9 hPa 0,0 l/m 4,0 km/h O 5,5 C 17,9 C 12,1 km/h
24.03.2010 17:00 16,8 C 51 % 1016,9 hPa 0,0 l/m 4,2 km/h SO 6,5 C 16,8 C 13,7 km/h
24.03.2010 18:00 15,1 C 58 % 1017,1 hPa 0,0 l/m 2,7 km/h S-SO 6,8 C 15,1 C 9,3 km/h
24.03.2010 19:00 13,7 C 64 % 1017,5 hPa 0,0 l/m 2,2 km/h S-SO 7,1 C 13,7 C 8,0 km/h
24.03.2010 20:00 12,5 C 69 % 1017,8 hPa 0,0 l/m 1,9 km/h S 7,0 C 12,5 C 8,8 km/h
24.03.2010 21:00 11,0 C 75 % 1017,8 hPa 0,0 l/m 0,5 km/h N 6,7 C 11,0 C 3,2 km/h
24.03.2010 22:00 10,1 C 79 % 1017,8 hPa 0,0 l/m 0,1 km/h N 6,6 C 10,1 C 3,2 km/h
24.03.2010 23:00 10,0 C 81 % 1017,7 hPa 0,0 l/m 0,3 km/h N 6,8 C 10,0 C 3,6 km/h
25.03.2010 00:00 9,1 C 83 % 1017,4 hPa 0,0 l/m 0,0 km/h N 6,3 C 9,1 C 0,8 km/h
25.03.2010 01:00 7,6 C 87 % 1017,2 hPa 0,0 l/m 0,0 km/h N 5,6 C 7,6 C 1,6 km/h
25.03.2010 02:00 6,7 C 89 % 1016,9 hPa 0,0 l/m 0,1 km/h N 5,1 C 6,7 C 1,6 km/h
25.03.2010 03:00 9,3 C 88 % 1016,2 hPa 0,0 l/m 1,0 km/h O-SO 7,5 C 9,3 C 5,6 km/h
25.03.2010 04:00 10,8 C 83 % 1016,1 hPa 0,0 l/m 0,7 km/h S-SO 7,9 C 10,8 C 4,8 km/h
25.03.2010 05:00 11,4 C 81 % 1015,9 hPa 0,0 l/m 1,5 km/h O-SO 8,2 C 11,4 C 7,2 km/h
25.03.2010 06:00 11,3 C 82 % 1015,8 hPa 0,0 l/m 2,2 km/h O-NO 8,3 C 11,3 C 8,1 km/h
25.03.2010 07:00 12,6 C 77 % 1015,8 hPa 0,0 l/m 2,5 km/h S-SO 8,7 C 12,6 C 9,3 km/h
25.03.2010 08:00 14,8 C 70 % 1015,7 hPa 0,0 l/m 5,0 km/h S-SO 9,3 C 14,8 C 16,5 km/h
25.03.2010 09:00 16,3 C 64 % 1015,6 hPa 0,0 l/m 5,9 km/h S-SO 9,5 C 16,1 C 21,3 km/h
25.03.2010 10:00 17,2 C 59 % 1015,3 hPa 0,0 l/m 8,6 km/h S-SO 9,0 C 16,2 C 28,5 km/h
25.03.2010 11:00 18,0 C 57 % 1014,9 hPa 0,0 l/m 8,6 km/h SO 9,2 C 16,9 C 26,1 km/h
25.03.2010 12:00 18,4 C 55 % 1014,4 hPa 0,0 l/m 7,3 km/h SO 9,2 C 18,0 C 21,7 km/h
25.03.2010 13:00 19,4 C 52 % 1013,5 hPa 0,0 l/m 8,5 km/h SO 9,3 C 18,5 C 24,1 km/h
25.03.2010 14:00 19,8 C 51 % 1013,2 hPa 0,0 l/m 10,0 km/h SO 9,2 C 18,4 C 28,9 km/h
25.03.2010 15:00 18,7 C 52 % 1012,8 hPa 0,0 l/m 9,9 km/h S-SO 8,6 C 17,3 C 32,6 km/h
25.03.2010 16:00 18,3 C 55 % 1012,5 hPa 0,0 l/m 7,7 km/h SO 9,1 C 17,7 C 25,7 km/h
25.03.2010 17:00 16,9 C 60 % 1012,5 hPa 0,0 l/m 5,6 km/h S-SO 9,1 C 16,9 C 17,7 km/h
25.03.2010 18:00 15,8 C 66 % 1012,7 hPa 0,0 l/m 4,3 km/h S-SO 9,5 C 15,8 C 16,9 km/h
25.03.2010 19:00 14,7 C 70 % 1013,0 hPa 0,0 l/m 3,5 km/h S-SO 9,3 C 14,7 C 12,5 km/h
25.03.2010 20:00 13,9 C 73 % 1013,0 hPa 0,0 l/m 3,8 km/h S 9,0 C 13,9 C 14,1 km/h
25.03.2010 21:00 12,9 C 77 % 1013,0 hPa 0,0 l/m 1,1 km/h S-SW 8,9 C 12,9 C 6,8 km/h
25.03.2010 22:00 12,0 C 79 % 1012,9 hPa 0,0 l/m 0,4 km/h N 8,4 C 12,0 C 4,0 km/h
25.03.2010 23:00 10,1 C 83 % 1012,6 hPa 0,0 l/m 0,2 km/h N 7,3 C 10,1 C 2,8 km/h
26.03.2010 00:00 9,1 C 85 % 1012,3 hPa 0,0 l/m 0,1 km/h N 6,7 C 9,1 C 2,4 km/h
26.03.2010 01:00 6,7 C 90 % 1012,5 hPa 0,0 l/m 0,0 km/h N 5,2 C 6,7 C 1,2 km/h
26.03.2010 02:00 5,9 C 91 % 1012,5 hPa 0,0 l/m 0,0 km/h N 4,6 C 5,9 C 0,4 km/h
26.03.2010 03:00 5,2 C 92 % 1012,4 hPa 0,0 l/m 0,0 km/h N 4,0 C 5,2 C 1,2 km/h
26.03.2010 04:00 5,2 C 92 % 1012,8 hPa 0,0 l/m 0,1 km/h N 4,0 C 5,2 C 1,6 km/h
26.03.2010 05:00 4,5 C 92 % 1013,0 hPa 0,0 l/m 0,0 km/h N 3,4 C 4,5 C 1,2 km/h
26.03.2010 06:00 4,9 C 93 % 1013,1 hPa 0,0 l/m 0,0 km/h N 3,8 C 4,9 C 0,5 km/h
26.03.2010 07:00 6,0 C 93 % 1013,0 hPa 0,0 l/m 0,0 km/h S-SO 5,0 C 6,0 C 0,0 km/h
26.03.2010 13:00 22,6 C 39 % 1007,3 hPa 0,0 l/m 6,5 km/h SO 7,9 C 22,5 C 19,3 km/h
26.03.2010 14:00 22,9 C 39 % 1006,2 hPa 0,0 l/m 6,1 km/h SO 8,1 C 22,7 C 21,3 km/h
26.03.2010 15:00 21,7 C 40 % 1005,0 hPa 0,0 l/m 10,6 km/h S 7,6 C 20,3 C 34,6 km/h
26.03.2010 16:00 20,6 C 44 % 1004,5 hPa 0,0 l/m 8,2 km/h S-SO 7,9 C 19,9 C 22,5 km/h
26.03.2010 17:00 18,9 C 50 % 1004,2 hPa 0,0 l/m 4,8 km/h S-SO 8,4 C 18,9 C 16,5 km/h
26.03.2010 18:00 17,7 C 53 % 1003,7 hPa 0,0 l/m 3,5 km/h SO 7,9 C 17,7 C 9,7 km/h
26.03.2010 19:00 15,9 C 56 % 1003,8 hPa 0,0 l/m 1,8 km/h SO 7,1 C 15,9 C 8,1 km/h
26.03.2010 20:00 14,9 C 57 % 1004,7 hPa 0,0 l/m 3,2 km/h SO 6,5 C 14,9 C 11,7 km/h
26.03.2010 21:00 15,1 C 55 % 1006,8 hPa 0,0 l/m 11,1 km/h W-SW 6,0 C 12,7 C 30,2 km/h
26.03.2010 22:00 12,9 C 58 % 1008,2 hPa 0,0 l/m 13,6 km/h W-SW 4,9 C 9,2 C 31,8 km/h
26.03.2010 23:00 10,8 C 64 % 1008,9 hPa 0,0 l/m 15,0 km/h W-SW 4,3 C 6,0 C 37,8 km/h
27.03.2010 00:00 10,1 C 65 % 1008,8 hPa 0,0 l/m 14,6 km/h W-SW 3,8 C 5,4 C 35,4 km/h
27.03.2010 01:00 9,9 C 65 % 1008,9 hPa 0,0 l/m 11,8 km/h SW 3,5 C 6,6 C 30,2 km/h
27.03.2010 02:00 9,7 C 64 % 1008,7 hPa 0,0 l/m 13,6 km/h SW 3,2 C 5,4 C 31,0 km/h
27.03.2010 03:00 9,6 C 64 % 1008,8 hPa 0,0 l/m 13,9 km/h W-NW 3,0 C 5,2 C 35,4 km/h
27.03.2010 04:00 9,8 C 62 % 1008,9 hPa 0,0 l/m 10,0 km/h W 2,9 C 7,4 C 28,2 km/h
27.03.2010 05:00 10,1 C 60 % 1008,8 hPa 0,0 l/m 11,3 km/h W 2,7 C 7,0 C 27,8 km/h
27.03.2010 06:00 10,1 C 60 % 1009,6 hPa 0,0 l/m 3,6 km/h N-NO 2,7 C 10,1 C 12,9 km/h
27.03.2010 07:00 10,7 C 59 % 1010,3 hPa 0,0 l/m 2,8 km/h W-SW 3,0 C 10,7 C 10,5 km/h
27.03.2010 08:00 11,3 C 58 % 1010,4 hPa 0,0 l/m 5,7 km/h W 3,3 C 10,9 C 18,1 km/h
27.03.2010 09:00 11,9 C 55 % 1010,2 hPa 0,0 l/m 7,6 km/h NW 3,0 C 11,1 C 20,4 km/h
27.03.2010 10:00 13,2 C 49 % 1009,9 hPa 0,0 l/m 9,6 km/h W 2,8 C 11,3 C 22,9 km/h
27.03.2010 11:00 14,3 C 48 % 1009,3 hPa 0,0 l/m 8,6 km/h W 3,3 C 13,0 C 20,9 km/h
27.03.2010 12:00 14,9 C 45 % 1008,8 hPa 0,0 l/m 6,8 km/h W-SW 3,0 C 14,6 C 18,1 km/h
27.03.2010 13:00 16,0 C 40 % 1008,1 hPa 0,0 l/m 9,0 km/h W-NW 2,5 C 14,7 C 24,9 km/h
27.03.2010 14:00 15,5 C 40 % 1007,7 hPa 0,0 l/m 10,2 km/h NW 1,9 C 13,7 C 22,5 km/h
27.03.2010 15:00 14,8 C 43 % 1007,3 hPa 0,0 l/m 8,5 km/h W 2,2 C 13,6 C 21,7 km/h
27.03.2010 16:00 14,8 C 41 % 1007,1 hPa 0,0 l/m 7,8 km/h NW 1,6 C 14,0 C 20,9 km/h
27.03.2010 17:00 13,5 C 44 % 1007,4 hPa 0,0 l/m 5,0 km/h NW 1,5 C 12,9 C 11,3 km/h
27.03.2010 18:00 11,4 C 51 % 1007,7 hPa 0,0 l/m 1,1 km/h N 1,6 C 11,4 C 3,6 km/h
27.03.2010 19:00 8,2 C 63 % 1008,2 hPa 0,0 l/m 0,0 km/h N 1,5 C 8,2 C 0,4 km/h
27.03.2010 20:00 7,5 C 66 % 1008,4 hPa 0,0 l/m 0,2 km/h N 1,5 C 7,5 C 3,2 km/h
27.03.2010 21:00 6,2 C 70 % 1008,7 hPa 0,0 l/m 0,2 km/h N 1,0 C 6,2 C 3,2 km/h
27.03.2010 22:00 5,8 C 72 % 1008,7 hPa 0,0 l/m 0,3 km/h N 1,2 C 5,8 C 3,6 km/h
27.03.2010 23:00 5,5 C 72 % 1008,6 hPa 0,0 l/m 0,2 km/h N 0,8 C 5,5 C 1,6 km/h
28.03.2010 00:00 5,9 C 71 % 1008,7 hPa 0,0 l/m 1,4 km/h W-SW 1,0 C 5,9 C 6,0 km/h
28.03.2010 01:00 6,8 C 69 % 1008,8 hPa 0,0 l/m 1,0 km/h W-SW 1,4 C 6,8 C 5,2 km/h
28.03.2010 03:00 9,7 C 61 % 1009,3 hPa 0,0 l/m 8,6 km/h W 2,5 C 7,7 C 24,5 km/h
28.03.2010 04:00 8,5 C 73 % 1010,0 hPa 0,3 l/m 8,8 km/h W 3,9 C 6,8 C 25,4 km/h
28.03.2010 05:00 8,4 C 73 % 1010,3 hPa 0,0 l/m 6,3 km/h W 3,8 C 8,0 C 21,7 km/h
28.03.2010 06:00 8,6 C 72 % 1010,4 hPa 0,0 l/m 4,8 km/h W 3,8 C 8,6 C 18,1 km/h
28.03.2010 07:00 9,1 C 72 % 1011,0 hPa 0,0 l/m 9,3 km/h W 4,2 C 7,0 C 27,0 km/h
28.03.2010 08:00 9,4 C 71 % 1011,5 hPa 0,0 l/m 9,7 km/h W 4,4 C 7,1 C 24,9 km/h
28.03.2010 09:00 10,3 C 68 % 1012,2 hPa 0,0 l/m 8,2 km/h W-NW 4,7 C 9,0 C 24,5 km/h
28.03.2010 10:00 10,7 C 66 % 1012,6 hPa 0,0 l/m 7,8 km/h NW 4,6 C 9,7 C 20,1 km/h
28.03.2010 11:00 11,4 C 64 % 1012,9 hPa 0,0 l/m 8,1 km/h W-NW 4,7 C 10,2 C 23,3 km/h
28.03.2010 12:00 11,5 C 61 % 1013,0 hPa 0,0 l/m 13,2 km/h W 4,3 C 7,7 C 32,2 km/h
28.03.2010 13:00 11,9 C 59 % 1012,8 hPa 0,0 l/m 11,5 km/h W-NW 4,2 C 8,9 C 27,0 km/h
28.03.2010 14:00 13,1 C 51 % 1012,2 hPa 0,0 l/m 11,6 km/h NW 3,0 C 10,3 C 27,4 km/h
28.03.2010 15:00 13,7 C 48 % 1011,8 hPa 0,0 l/m 11,9 km/h NW 2,9 C 10,8 C 28,2 km/h
28.03.2010 16:00 13,5 C 49 % 1011,9 hPa 0,0 l/m 11,3 km/h W 3,0 C 10,9 C 26,1 km/h
28.03.2010 17:00 12,9 C 53 % 1012,1 hPa 0,0 l/m 11,4 km/h W-SW 3,5 C 10,1 C 29,8 km/h
28.03.2010 18:00 11,8 C 56 % 1012,5 hPa 0,0 l/m 9,9 km/h W-SW 3,3 C 9,7 C 24,5 km/h
28.03.2010 19:00 10,8 C 62 % 1012,8 hPa 0,0 l/m 5,7 km/h W 3,8 C 10,7 C 18,5 km/h
28.03.2010 20:00 10,1 C 63 % 1013,1 hPa 0,0 l/m 3,4 km/h W-SW 3,4 C 10,1 C 12,5 km/h
28.03.2010 21:00 9,6 C 64 % 1013,2 hPa 0,0 l/m 1,9 km/h W-SW 3,1 C 9,6 C 7,2 km/h
28.03.2010 22:00 9,4 C 64 % 1013,2 hPa 0,0 l/m 2,0 km/h W-SW 2,9 C 9,4 C 7,6 km/h
28.03.2010 23:00 6,8 C 74 % 1013,2 hPa 0,0 l/m 0,1 km/h N 2,5 C 6,8 C 1,2 km/h
Min-Datum _ 23.03.10 26.03.10 26.03.10 - 22.03.10 - 23.03.10 23.03.10 22.03.10
_ Min-Zeit 05:30 14:30 18:30 - 17:45 - 06:00 06:00 22:45
Minimum _ 1,3 C 38 % 1003,5 hPa - 0,0 km/h - 0,2 C 1,4 C 0,0 km/h
Max-Datum _ 26.03.10 23.03.10 22.03.10 22.03.10 26.03.10 - 25.03.10 26.03.10 27.03.10
_ Max-Zeit 14:15 06:30 11:30 04:30 23:45 - 14:30 14:15 03:00
Maximum _ 23,1 C 93 % 1023,0 hPa 0,3 l/m 17,4 km/h
W-SW
- 9,6 C 23,1 C 45,1 km/h
W
Durchschnitt _ 11,2 C 69 % 1015,0 hPa #0,5 l/m 4,1 km/h W 5,3 C 10,7 C 12,5 km/h